sensor_id;sensor_type;location;lat;lon;timestamp;P1;durP1;ratioP1;P2;durP2;ratioP2
51479;SDS011;37556;44.570;18.612;2022-12-29T00:02:08;15.73;;;10.85;;
51479;SDS011;37556;44.570;18.612;2022-12-29T00:04:34;18.17;;;10.20;;
51479;SDS011;37556;44.570;18.612;2022-12-29T00:07:01;12.30;;;10.18;;
51479;SDS011;37556;44.570;18.612;2022-12-29T00:09:29;7.70;;;7.00;;
51479;SDS011;37556;44.570;18.612;2022-12-29T00:11:56;16.15;;;4.28;;
51479;SDS011;37556;44.570;18.612;2022-12-29T00:14:22;4.53;;;3.10;;
51479;SDS011;37556;44.570;18.612;2022-12-29T00:17:07;5.93;;;4.50;;
51479;SDS011;37556;44.570;18.612;2022-12-29T00:19:33;11.68;;;7.03;;
51479;SDS011;37556;44.570;18.612;2022-12-29T00:22:18;7.72;;;6.03;;
51479;SDS011;37556;44.570;18.612;2022-12-29T00:25:04;36.17;;;9.55;;
51479;SDS011;37556;44.570;18.612;2022-12-29T00:27:49;21.15;;;11.10;;
51479;SDS011;37556;44.570;18.612;2022-12-29T00:30:34;13.75;;;8.73;;
51479;SDS011;37556;44.570;18.612;2022-12-29T00:33:20;13.20;;;8.10;;
51479;SDS011;37556;44.570;18.612;2022-12-29T00:36:22;24.55;;;8.55;;
51479;SDS011;37556;44.570;18.612;2022-12-29T00:38:51;14.63;;;8.32;;
51479;SDS011;37556;44.570;18.612;2022-12-29T00:41:37;12.73;;;8.40;;
51479;SDS011;37556;44.570;18.612;2022-12-29T00:44:21;20.95;;;10.18;;
51479;SDS011;37556;44.570;18.612;2022-12-29T00:46:48;21.95;;;13.68;;
51479;SDS011;37556;44.570;18.612;2022-12-29T00:49:14;15.52;;;10.57;;
51479;SDS011;37556;44.570;18.612;2022-12-29T00:52:10;9.27;;;8.45;;
51479;SDS011;37556;44.570;18.612;2022-12-29T00:54:37;16.55;;;9.40;;
51479;SDS011;37556;44.570;18.612;2022-12-29T00:57:04;10.30;;;8.10;;
51479;SDS011;37556;44.570;18.612;2022-12-29T00:59:31;9.60;;;8.35;;
51479;SDS011;37556;44.570;18.612;2022-12-29T01:01:57;24.33;;;10.93;;
51479;SDS011;37556;44.570;18.612;2022-12-29T01:06:49;7.78;;;6.40;;
51479;SDS011;37556;44.570;18.612;2022-12-29T01:09:16;11.98;;;10.77;;
51479;SDS011;37556;44.570;18.612;2022-12-29T01:12:06;21.65;;;6.13;;
51479;SDS011;37556;44.570;18.612;2022-12-29T01:14:33;5.32;;;4.90;;
51479;SDS011;37556;44.570;18.612;2022-12-29T01:16:59;5.88;;;4.78;;
51479;SDS011;37556;44.570;18.612;2022-12-29T01:21:51;6.25;;;4.28;;
51479;SDS011;37556;44.570;18.612;2022-12-29T01:26:44;5.35;;;4.43;;
51479;SDS011;37556;44.570;18.612;2022-12-29T01:29:10;5.93;;;4.93;;
51479;SDS011;37556;44.570;18.612;2022-12-29T01:31:36;13.48;;;7.18;;
51479;SDS011;37556;44.570;18.612;2022-12-29T01:36:29;8.30;;;5.38;;
51479;SDS011;37556;44.570;18.612;2022-12-29T01:38:55;3.50;;;1.85;;
51479;SDS011;37556;44.570;18.612;2022-12-29T01:41:21;3.53;;;3.25;;
51479;SDS011;37556;44.570;18.612;2022-12-29T01:43:54;2.50;;;1.67;;
51479;SDS011;37556;44.570;18.612;2022-12-29T01:51:51;2.38;;;2.28;;
51479;SDS011;37556;44.570;18.612;2022-12-29T01:54:51;5.57;;;4.45;;
51479;SDS011;37556;44.570;18.612;2022-12-29T01:57:11;8.73;;;4.20;;
51479;SDS011;37556;44.570;18.612;2022-12-29T01:59:39;3.72;;;2.97;;
51479;SDS011;37556;44.570;18.612;2022-12-29T02:02:07;7.82;;;3.85;;
51479;SDS011;37556;44.570;18.612;2022-12-29T02:07:09;2.80;;;2.47;;
51479;SDS011;37556;44.570;18.612;2022-12-29T02:12:02;9.90;;;3.60;;
51479;SDS011;37556;44.570;18.612;2022-12-29T02:14:28;8.68;;;5.88;;
51479;SDS011;37556;44.570;18.612;2022-12-29T02:25:18;4.57;;;2.63;;
51479;SDS011;37556;44.570;18.612;2022-12-29T02:35:10;12.00;;;7.88;;
51479;SDS011;37556;44.570;18.612;2022-12-29T02:37:41;12.18;;;7.53;;
51479;SDS011;37556;44.570;18.612;2022-12-29T02:45:41;9.35;;;4.15;;
51479;SDS011;37556;44.570;18.612;2022-12-29T02:48:12;8.48;;;3.47;;
51479;SDS011;37556;44.570;18.612;2022-12-29T02:53:43;5.20;;;2.63;;
51479;SDS011;37556;44.570;18.612;2022-12-29T02:56:27;0.88;;;0.85;;
51479;SDS011;37556;44.570;18.612;2022-12-29T02:58:53;5.13;;;4.65;;
51479;SDS011;37556;44.570;18.612;2022-12-29T03:06:47;8.52;;;4.90;;
51479;SDS011;37556;44.570;18.612;2022-12-29T03:09:20;2.53;;;2.42;;
51479;SDS011;37556;44.570;18.612;2022-12-29T03:11:56;4.57;;;3.28;;
51479;SDS011;37556;44.570;18.612;2022-12-29T03:14:33;3.35;;;2.20;;
51479;SDS011;37556;44.570;18.612;2022-12-29T03:17:29;7.93;;;4.00;;
51479;SDS011;37556;44.570;18.612;2022-12-29T03:20:02;3.83;;;3.55;;
51479;SDS011;37556;44.570;18.612;2022-12-29T03:22:30;4.68;;;2.95;;
51479;SDS011;37556;44.570;18.612;2022-12-29T03:25:05;3.15;;;2.75;;
51479;SDS011;37556;44.570;18.612;2022-12-29T03:27:36;3.05;;;2.05;;
51479;SDS011;37556;44.570;18.612;2022-12-29T03:30:05;6.95;;;3.80;;
51479;SDS011;37556;44.570;18.612;2022-12-29T03:32:33;3.40;;;2.65;;
51479;SDS011;37556;44.570;18.612;2022-12-29T03:35:00;14.43;;;5.65;;
51479;SDS011;37556;44.570;18.612;2022-12-29T03:37:37;3.40;;;2.67;;
51479;SDS011;37556;44.570;18.612;2022-12-29T03:40:05;1.45;;;1.30;;
51479;SDS011;37556;44.570;18.612;2022-12-29T03:42:32;13.50;;;6.25;;
51479;SDS011;37556;44.570;18.612;2022-12-29T03:45:00;2.35;;;2.15;;
51479;SDS011;37556;44.570;18.612;2022-12-29T03:47:26;5.72;;;5.32;;
51479;SDS011;37556;44.570;18.612;2022-12-29T03:49:52;4.13;;;2.95;;
51479;SDS011;37556;44.570;18.612;2022-12-29T03:54:44;3.05;;;2.58;;
51479;SDS011;37556;44.570;18.612;2022-12-29T03:59:37;10.93;;;5.65;;
51479;SDS011;37556;44.570;18.612;2022-12-29T04:02:03;9.05;;;4.93;;
51479;SDS011;37556;44.570;18.612;2022-12-29T04:04:29;8.52;;;4.07;;
51479;SDS011;37556;44.570;18.612;2022-12-29T04:06:55;8.02;;;3.05;;
51479;SDS011;37556;44.570;18.612;2022-12-29T04:09:21;9.30;;;6.63;;
51479;SDS011;37556;44.570;18.612;2022-12-29T04:11:47;4.13;;;3.80;;
51479;SDS011;37556;44.570;18.612;2022-12-29T04:14:13;4.30;;;2.88;;
51479;SDS011;37556;44.570;18.612;2022-12-29T04:16:40;4.88;;;4.57;;
51479;SDS011;37556;44.570;18.612;2022-12-29T04:21:32;4.28;;;3.95;;
51479;SDS011;37556;44.570;18.612;2022-12-29T04:23:59;3.88;;;2.90;;
51479;SDS011;37556;44.570;18.612;2022-12-29T04:26:25;11.10;;;4.72;;
51479;SDS011;37556;44.570;18.612;2022-12-29T04:28:51;6.70;;;4.43;;
51479;SDS011;37556;44.570;18.612;2022-12-29T04:31:17;14.85;;;5.50;;
51479;SDS011;37556;44.570;18.612;2022-12-29T04:33:43;18.25;;;3.58;;
51479;SDS011;37556;44.570;18.612;2022-12-29T04:36:10;6.85;;;5.18;;
51479;SDS011;37556;44.570;18.612;2022-12-29T04:38:36;7.18;;;4.55;;
51479;SDS011;37556;44.570;18.612;2022-12-29T04:41:02;3.40;;;2.70;;
51479;SDS011;37556;44.570;18.612;2022-12-29T04:43:28;11.38;;;6.03;;
51479;SDS011;37556;44.570;18.612;2022-12-29T04:45:54;9.57;;;3.67;;
51479;SDS011;37556;44.570;18.612;2022-12-29T04:48:21;16.40;;;6.50;;
51479;SDS011;37556;44.570;18.612;2022-12-29T04:50:47;4.80;;;4.50;;
51479;SDS011;37556;44.570;18.612;2022-12-29T04:53:14;12.63;;;3.63;;
51479;SDS011;37556;44.570;18.612;2022-12-29T04:55:41;6.10;;;4.75;;
51479;SDS011;37556;44.570;18.612;2022-12-29T05:00:33;4.20;;;3.90;;
51479;SDS011;37556;44.570;18.612;2022-12-29T05:05:25;12.70;;;6.13;;
51479;SDS011;37556;44.570;18.612;2022-12-29T05:07:51;5.05;;;3.35;;
51479;SDS011;37556;44.570;18.612;2022-12-29T05:10:17;11.20;;;5.43;;
51479;SDS011;37556;44.570;18.612;2022-12-29T05:15:10;17.85;;;7.70;;
51479;SDS011;37556;44.570;18.612;2022-12-29T05:17:36;4.40;;;4.00;;
51479;SDS011;37556;44.570;18.612;2022-12-29T05:22:28;9.32;;;8.27;;
51479;SDS011;37556;44.570;18.612;2022-12-29T05:24:55;9.85;;;5.68;;
51479;SDS011;37556;44.570;18.612;2022-12-29T05:27:21;7.55;;;5.50;;
51479;SDS011;37556;44.570;18.612;2022-12-29T05:29:47;5.75;;;4.75;;
51479;SDS011;37556;44.570;18.612;2022-12-29T05:32:13;10.98;;;4.40;;
51479;SDS011;37556;44.570;18.612;2022-12-29T05:34:39;20.83;;;8.88;;
51479;SDS011;37556;44.570;18.612;2022-12-29T05:37:05;5.45;;;4.90;;
51479;SDS011;37556;44.570;18.612;2022-12-29T05:39:31;12.02;;;6.28;;
51479;SDS011;37556;44.570;18.612;2022-12-29T05:41:57;6.15;;;5.18;;
51479;SDS011;37556;44.570;18.612;2022-12-29T05:44:24;6.10;;;4.88;;
51479;SDS011;37556;44.570;18.612;2022-12-29T05:46:50;18.20;;;5.03;;
51479;SDS011;37556;44.570;18.612;2022-12-29T05:49:16;9.35;;;5.57;;
51479;SDS011;37556;44.570;18.612;2022-12-29T05:51:42;11.23;;;6.70;;
51479;SDS011;37556;44.570;18.612;2022-12-29T05:54:08;7.15;;;4.25;;
51479;SDS011;37556;44.570;18.612;2022-12-29T05:56:34;6.75;;;4.22;;
51479;SDS011;37556;44.570;18.612;2022-12-29T05:59:00;15.35;;;10.75;;
51479;SDS011;37556;44.570;18.612;2022-12-29T06:01:26;12.38;;;8.20;;
51479;SDS011;37556;44.570;18.612;2022-12-29T06:03:53;28.38;;;8.98;;
51479;SDS011;37556;44.570;18.612;2022-12-29T06:08:45;17.50;;;9.15;;
51479;SDS011;37556;44.570;18.612;2022-12-29T06:11:11;7.60;;;6.93;;
51479;SDS011;37556;44.570;18.612;2022-12-29T06:13:37;16.38;;;9.38;;
51479;SDS011;37556;44.570;18.612;2022-12-29T06:18:29;8.75;;;7.07;;
51479;SDS011;37556;44.570;18.612;2022-12-29T06:23:22;13.30;;;9.65;;
51479;SDS011;37556;44.570;18.612;2022-12-29T06:25:48;9.80;;;6.60;;
51479;SDS011;37556;44.570;18.612;2022-12-29T06:28:14;12.48;;;7.90;;
51479;SDS011;37556;44.570;18.612;2022-12-29T06:30:42;15.27;;;8.40;;
51479;SDS011;37556;44.570;18.612;2022-12-29T06:33:09;19.35;;;8.77;;
51479;SDS011;37556;44.570;18.612;2022-12-29T06:35:35;16.90;;;10.30;;
51479;SDS011;37556;44.570;18.612;2022-12-29T06:38:01;15.95;;;13.70;;
51479;SDS011;37556;44.570;18.612;2022-12-29T06:40:27;22.50;;;9.82;;
51479;SDS011;37556;44.570;18.612;2022-12-29T06:42:56;27.55;;;11.75;;
51479;SDS011;37556;44.570;18.612;2022-12-29T06:45:22;15.60;;;14.23;;
51479;SDS011;37556;44.570;18.612;2022-12-29T06:47:48;31.80;;;17.80;;
51479;SDS011;37556;44.570;18.612;2022-12-29T06:50:20;11.30;;;10.30;;
51479;SDS011;37556;44.570;18.612;2022-12-29T06:52:46;17.38;;;10.27;;
51479;SDS011;37556;44.570;18.612;2022-12-29T06:55:14;13.32;;;9.52;;
51479;SDS011;37556;44.570;18.612;2022-12-29T06:57:55;32.63;;;12.48;;
51479;SDS011;37556;44.570;18.612;2022-12-29T07:00:24;11.20;;;7.50;;
51479;SDS011;37556;44.570;18.612;2022-12-29T07:06:11;27.77;;;15.48;;
51479;SDS011;37556;44.570;18.612;2022-12-29T07:08:38;14.18;;;12.73;;
51479;SDS011;37556;44.570;18.612;2022-12-29T07:11:08;17.42;;;9.10;;
51479;SDS011;37556;44.570;18.612;2022-12-29T07:13:36;15.07;;;9.32;;
51479;SDS011;37556;44.570;18.612;2022-12-29T07:16:12;19.27;;;11.65;;
51479;SDS011;37556;44.570;18.612;2022-12-29T07:18:46;12.23;;;11.13;;
51479;SDS011;37556;44.570;18.612;2022-12-29T07:21:12;10.15;;;7.57;;
51479;SDS011;37556;44.570;18.612;2022-12-29T07:23:41;23.63;;;15.52;;
51479;SDS011;37556;44.570;18.612;2022-12-29T07:32:04;35.60;;;18.23;;
51479;SDS011;37556;44.570;18.612;2022-12-29T07:34:36;24.95;;;11.27;;
51479;SDS011;37556;44.570;18.612;2022-12-29T07:39:41;15.15;;;12.57;;
51479;SDS011;37556;44.570;18.612;2022-12-29T07:44:37;32.67;;;22.75;;
51479;SDS011;37556;44.570;18.612;2022-12-29T07:47:18;20.92;;;13.05;;
51479;SDS011;37556;44.570;18.612;2022-12-29T07:49:44;12.25;;;11.15;;
51479;SDS011;37556;44.570;18.612;2022-12-29T07:52:10;8.02;;;6.35;;
51479;SDS011;37556;44.570;18.612;2022-12-29T07:54:40;6.18;;;3.80;;
51479;SDS011;37556;44.570;18.612;2022-12-29T07:57:09;13.65;;;7.20;;
51479;SDS011;37556;44.570;18.612;2022-12-29T07:59:35;5.95;;;5.43;;
51479;SDS011;37556;44.570;18.612;2022-12-29T08:02:01;5.38;;;3.80;;
51479;SDS011;37556;44.570;18.612;2022-12-29T08:04:27;14.50;;;5.07;;
51479;SDS011;37556;44.570;18.612;2022-12-29T08:06:54;10.63;;;9.23;;
51479;SDS011;37556;44.570;18.612;2022-12-29T08:09:25;6.90;;;6.35;;
51479;SDS011;37556;44.570;18.612;2022-12-29T08:11:57;6.20;;;4.90;;
51479;SDS011;37556;44.570;18.612;2022-12-29T08:14:26;6.15;;;4.40;;
51479;SDS011;37556;44.570;18.612;2022-12-29T08:16:53;23.02;;;6.60;;
51479;SDS011;37556;44.570;18.612;2022-12-29T08:22:41;3.45;;;3.15;;
51479;SDS011;37556;44.570;18.612;2022-12-29T08:25:22;5.47;;;4.38;;
51479;SDS011;37556;44.570;18.612;2022-12-29T08:31:12;4.30;;;3.78;;
51479;SDS011;37556;44.570;18.612;2022-12-29T08:33:39;6.85;;;4.45;;
51479;SDS011;37556;44.570;18.612;2022-12-29T08:36:06;3.65;;;3.22;;
51479;SDS011;37556;44.570;18.612;2022-12-29T08:38:32;8.23;;;3.78;;
51479;SDS011;37556;44.570;18.612;2022-12-29T08:40:59;10.00;;;6.05;;
51479;SDS011;37556;44.570;18.612;2022-12-29T08:43:38;7.00;;;5.13;;
51479;SDS011;37556;44.570;18.612;2022-12-29T08:49:07;3.47;;;3.20;;
51479;SDS011;37556;44.570;18.612;2022-12-29T08:51:43;10.85;;;7.90;;
51479;SDS011;37556;44.570;18.612;2022-12-29T08:54:10;2.47;;;2.38;;
51479;SDS011;37556;44.570;18.612;2022-12-29T08:56:46;6.90;;;4.43;;
51479;SDS011;37556;44.570;18.612;2022-12-29T08:59:40;7.03;;;3.72;;
51479;SDS011;37556;44.570;18.612;2022-12-29T09:02:15;7.90;;;4.00;;
51479;SDS011;37556;44.570;18.612;2022-12-29T09:04:43;6.63;;;4.30;;
51479;SDS011;37556;44.570;18.612;2022-12-29T09:13:24;7.15;;;5.75;;
51479;SDS011;37556;44.570;18.612;2022-12-29T09:16:00;11.75;;;7.22;;
51479;SDS011;37556;44.570;18.612;2022-12-29T09:18:46;7.07;;;6.15;;
51479;SDS011;37556;44.570;18.612;2022-12-29T09:21:21;6.95;;;5.47;;
51479;SDS011;37556;44.570;18.612;2022-12-29T09:27:04;4.25;;;3.95;;
51479;SDS011;37556;44.570;18.612;2022-12-29T09:29:51;8.95;;;6.30;;
51479;SDS011;37556;44.570;18.612;2022-12-29T09:32:37;7.20;;;5.63;;
51479;SDS011;37556;44.570;18.612;2022-12-29T09:35:08;5.88;;;5.25;;
51479;SDS011;37556;44.570;18.612;2022-12-29T09:37:37;6.47;;;4.03;;
51479;SDS011;37556;44.570;18.612;2022-12-29T09:40:04;9.38;;;6.88;;
51479;SDS011;37556;44.570;18.612;2022-12-29T09:51:07;5.65;;;3.83;;
51479;SDS011;37556;44.570;18.612;2022-12-29T09:56:03;13.43;;;6.40;;
51479;SDS011;37556;44.570;18.612;2022-12-29T10:15:11;5.15;;;4.65;;
51479;SDS011;37556;44.570;18.612;2022-12-29T10:17:52;9.10;;;5.10;;
51479;SDS011;37556;44.570;18.612;2022-12-29T10:25:37;9.32;;;4.97;;
51479;SDS011;37556;44.570;18.612;2022-12-29T10:28:10;5.70;;;4.75;;
51479;SDS011;37556;44.570;18.612;2022-12-29T10:31:10;8.27;;;6.95;;
51479;SDS011;37556;44.570;18.612;2022-12-29T10:34:00;14.07;;;6.28;;
51479;SDS011;37556;44.570;18.612;2022-12-29T10:36:34;13.20;;;7.90;;
51479;SDS011;37556;44.570;18.612;2022-12-29T10:39:04;20.17;;;6.97;;
51479;SDS011;37556;44.570;18.612;2022-12-29T10:44:02;8.48;;;7.63;;
51479;SDS011;37556;44.570;18.612;2022-12-29T10:46:30;18.38;;;8.18;;
51479;SDS011;37556;44.570;18.612;2022-12-29T10:48:56;8.52;;;7.07;;
51479;SDS011;37556;44.570;18.612;2022-12-29T10:51:35;10.40;;;7.15;;
51479;SDS011;37556;44.570;18.612;2022-12-29T10:57:28;9.68;;;8.73;;
51479;SDS011;37556;44.570;18.612;2022-12-29T11:06:45;15.90;;;7.60;;
51479;SDS011;37556;44.570;18.612;2022-12-29T11:09:31;11.95;;;8.40;;
51479;SDS011;37556;44.570;18.612;2022-12-29T11:17:49;12.15;;;9.80;;
51479;SDS011;37556;44.570;18.612;2022-12-29T11:20:35;11.68;;;10.63;;
51479;SDS011;37556;44.570;18.612;2022-12-29T11:23:21;25.35;;;11.65;;
51479;SDS011;37556;44.570;18.612;2022-12-29T11:28:34;24.23;;;14.15;;
51479;SDS011;37556;44.570;18.612;2022-12-29T11:31:01;17.52;;;14.50;;
51479;SDS011;37556;44.570;18.612;2022-12-29T11:33:31;21.70;;;12.85;;
51479;SDS011;37556;44.570;18.612;2022-12-29T11:36:07;35.60;;;17.60;;
51479;SDS011;37556;44.570;18.612;2022-12-29T11:38:42;17.63;;;13.70;;
51479;SDS011;37556;44.570;18.612;2022-12-29T11:41:18;21.05;;;16.00;;
51479;SDS011;37556;44.570;18.612;2022-12-29T11:43:51;29.02;;;16.45;;
51479;SDS011;37556;44.570;18.612;2022-12-29T11:46:22;24.80;;;15.43;;
51479;SDS011;37556;44.570;18.612;2022-12-29T11:55:02;20.20;;;12.15;;
51479;SDS011;37556;44.570;18.612;2022-12-29T11:57:28;17.27;;;14.05;;
51479;SDS011;37556;44.570;18.612;2022-12-29T11:59:55;21.60;;;15.50;;
51479;SDS011;37556;44.570;18.612;2022-12-29T12:02:42;56.17;;;21.20;;
51479;SDS011;37556;44.570;18.612;2022-12-29T12:05:16;24.73;;;13.60;;
51479;SDS011;37556;44.570;18.612;2022-12-29T12:10:23;26.92;;;13.48;;
51479;SDS011;37556;44.570;18.612;2022-12-29T12:15:21;14.43;;;9.70;;
51479;SDS011;37556;44.570;18.612;2022-12-29T12:17:53;9.38;;;6.65;;
51479;SDS011;37556;44.570;18.612;2022-12-29T12:20:22;19.20;;;10.90;;
51479;SDS011;37556;44.570;18.612;2022-12-29T12:31:21;7.45;;;6.68;;
51479;SDS011;37556;44.570;18.612;2022-12-29T12:33:50;6.72;;;5.50;;
51479;SDS011;37556;44.570;18.612;2022-12-29T12:36:26;4.95;;;4.03;;
51479;SDS011;37556;44.570;18.612;2022-12-29T12:39:11;5.97;;;4.90;;
51479;SDS011;37556;44.570;18.612;2022-12-29T12:41:45;5.47;;;4.45;;
51479;SDS011;37556;44.570;18.612;2022-12-29T12:47:14;8.65;;;4.45;;
51479;SDS011;37556;44.570;18.612;2022-12-29T12:55:00;17.20;;;7.97;;
51479;SDS011;37556;44.570;18.612;2022-12-29T12:57:36;7.20;;;5.25;;
51479;SDS011;37556;44.570;18.612;2022-12-29T13:00:13;8.65;;;4.43;;
51479;SDS011;37556;44.570;18.612;2022-12-29T13:02:49;5.60;;;4.20;;
51479;SDS011;37556;44.570;18.612;2022-12-29T13:20:50;5.25;;;3.50;;
51479;SDS011;37556;44.570;18.612;2022-12-29T13:28:16;7.00;;;5.18;;
51479;SDS011;37556;44.570;18.612;2022-12-29T13:36:05;5.88;;;2.53;;
51479;SDS011;37556;44.570;18.612;2022-12-29T13:38:37;1.45;;;1.33;;
51479;SDS011;37556;44.570;18.612;2022-12-29T13:41:06;1.88;;;1.77;;
51479;SDS011;37556;44.570;18.612;2022-12-29T13:43:34;2.05;;;1.63;;
51479;SDS011;37556;44.570;18.612;2022-12-29T13:46:02;1.25;;;1.23;;
51479;SDS011;37556;44.570;18.612;2022-12-29T13:48:44;2.72;;;2.40;;
51479;SDS011;37556;44.570;18.612;2022-12-29T13:51:12;2.97;;;1.35;;
51479;SDS011;37556;44.570;18.612;2022-12-29T13:53:48;2.08;;;1.98;;
51479;SDS011;37556;44.570;18.612;2022-12-29T13:56:26;1.45;;;1.38;;
51479;SDS011;37556;44.570;18.612;2022-12-29T14:01:34;1.27;;;1.25;;
51479;SDS011;37556;44.570;18.612;2022-12-29T14:04:12;0.90;;;0.90;;
51479;SDS011;37556;44.570;18.612;2022-12-29T14:06:39;2.47;;;2.10;;
51479;SDS011;37556;44.570;18.612;2022-12-29T14:09:33;1.20;;;1.10;;
51479;SDS011;37556;44.570;18.612;2022-12-29T14:12:00;1.48;;;1.38;;
51479;SDS011;37556;44.570;18.612;2022-12-29T14:14:27;11.50;;;4.07;;
51479;SDS011;37556;44.570;18.612;2022-12-29T14:16:54;6.18;;;5.57;;
51479;SDS011;37556;44.570;18.612;2022-12-29T14:21:56;13.82;;;9.48;;
51479;SDS011;37556;44.570;18.612;2022-12-29T14:26:59;4.67;;;4.10;;
51479;SDS011;37556;44.570;18.612;2022-12-29T14:31:55;9.80;;;5.47;;
51479;SDS011;37556;44.570;18.612;2022-12-29T14:37:00;5.40;;;2.95;;
51479;SDS011;37556;44.570;18.612;2022-12-29T14:39:47;3.35;;;3.00;;
51479;SDS011;37556;44.570;18.612;2022-12-29T14:42:13;6.80;;;6.20;;
51479;SDS011;37556;44.570;18.612;2022-12-29T14:44:46;9.50;;;6.25;;
51479;SDS011;37556;44.570;18.612;2022-12-29T14:47:55;12.93;;;8.18;;
51479;SDS011;37556;44.570;18.612;2022-12-29T14:52:57;6.65;;;6.03;;
51479;SDS011;37556;44.570;18.612;2022-12-29T14:55:40;7.13;;;5.95;;
51479;SDS011;37556;44.570;18.612;2022-12-29T14:58:12;6.70;;;5.38;;
51479;SDS011;37556;44.570;18.612;2022-12-29T15:00:40;7.07;;;4.78;;
51479;SDS011;37556;44.570;18.612;2022-12-29T15:06:04;16.08;;;9.75;;
51479;SDS011;37556;44.570;18.612;2022-12-29T15:08:38;18.95;;;7.95;;
51479;SDS011;37556;44.570;18.612;2022-12-29T15:11:18;4.97;;;4.57;;
51479;SDS011;37556;44.570;18.612;2022-12-29T15:13:45;16.60;;;7.60;;
51479;SDS011;37556;44.570;18.612;2022-12-29T15:16:30;8.63;;;6.85;;
51479;SDS011;37556;44.570;18.612;2022-12-29T15:18:56;6.38;;;4.47;;
51479;SDS011;37556;44.570;18.612;2022-12-29T15:21:24;7.88;;;5.60;;
51479;SDS011;37556;44.570;18.612;2022-12-29T15:23:51;15.32;;;6.32;;
51479;SDS011;37556;44.570;18.612;2022-12-29T15:26:18;6.53;;;5.85;;
51479;SDS011;37556;44.570;18.612;2022-12-29T15:28:47;14.20;;;8.07;;
51479;SDS011;37556;44.570;18.612;2022-12-29T15:31:15;12.25;;;8.75;;
51479;SDS011;37556;44.570;18.612;2022-12-29T15:33:46;17.55;;;7.65;;
51479;SDS011;37556;44.570;18.612;2022-12-29T15:36:20;12.10;;;5.57;;
51479;SDS011;37556;44.570;18.612;2022-12-29T15:38:47;11.10;;;5.15;;
51479;SDS011;37556;44.570;18.612;2022-12-29T15:41:36;11.23;;;7.00;;
51479;SDS011;37556;44.570;18.612;2022-12-29T15:44:21;14.02;;;7.35;;
51479;SDS011;37556;44.570;18.612;2022-12-29T15:46:49;8.38;;;7.22;;
51479;SDS011;37556;44.570;18.612;2022-12-29T15:49:15;8.77;;;7.35;;
51479;SDS011;37556;44.570;18.612;2022-12-29T15:51:41;22.00;;;9.93;;
51479;SDS011;37556;44.570;18.612;2022-12-29T15:54:18;28.08;;;16.45;;
51479;SDS011;37556;44.570;18.612;2022-12-29T15:56:45;27.05;;;17.30;;
51479;SDS011;37556;44.570;18.612;2022-12-29T15:59:25;16.52;;;12.32;;
51479;SDS011;37556;44.570;18.612;2022-12-29T16:01:51;27.90;;;15.63;;
51479;SDS011;37556;44.570;18.612;2022-12-29T16:04:18;24.83;;;13.18;;
51479;SDS011;37556;44.570;18.612;2022-12-29T16:06:59;16.70;;;5.45;;
51479;SDS011;37556;44.570;18.612;2022-12-29T16:09:33;19.75;;;9.13;;
51479;SDS011;37556;44.570;18.612;2022-12-29T16:12:21;10.82;;;6.82;;
51479;SDS011;37556;44.570;18.612;2022-12-29T16:15:07;7.05;;;6.20;;
51479;SDS011;37556;44.570;18.612;2022-12-29T16:17:36;12.13;;;8.57;;
51479;SDS011;37556;44.570;18.612;2022-12-29T16:20:15;19.90;;;7.35;;
51479;SDS011;37556;44.570;18.612;2022-12-29T16:22:46;17.27;;;11.15;;
51479;SDS011;37556;44.570;18.612;2022-12-29T16:25:20;26.15;;;9.27;;
51479;SDS011;37556;44.570;18.612;2022-12-29T16:27:47;17.95;;;9.43;;
51479;SDS011;37556;44.570;18.612;2022-12-29T16:30:21;12.73;;;8.07;;
51479;SDS011;37556;44.570;18.612;2022-12-29T16:32:49;4.43;;;4.03;;
51479;SDS011;37556;44.570;18.612;2022-12-29T16:35:27;3.60;;;3.40;;
51479;SDS011;37556;44.570;18.612;2022-12-29T16:38:37;8.38;;;4.00;;
51479;SDS011;37556;44.570;18.612;2022-12-29T16:40:50;10.32;;;6.00;;
51479;SDS011;37556;44.570;18.612;2022-12-29T16:43:29;14.98;;;8.93;;
51479;SDS011;37556;44.570;18.612;2022-12-29T16:50:51;8.35;;;6.18;;
51479;SDS011;37556;44.570;18.612;2022-12-29T16:53:26;16.48;;;9.10;;
51479;SDS011;37556;44.570;18.612;2022-12-29T16:55:54;13.60;;;11.35;;
51479;SDS011;37556;44.570;18.612;2022-12-29T16:58:22;23.02;;;10.98;;
51479;SDS011;37556;44.570;18.612;2022-12-29T17:00:48;14.43;;;9.80;;
51479;SDS011;37556;44.570;18.612;2022-12-29T17:03:15;15.20;;;8.15;;
51479;SDS011;37556;44.570;18.612;2022-12-29T17:05:41;25.50;;;8.80;;
51479;SDS011;37556;44.570;18.612;2022-12-29T17:08:17;8.35;;;4.70;;
51479;SDS011;37556;44.570;18.612;2022-12-29T17:10:51;2.95;;;2.75;;
51479;SDS011;37556;44.570;18.612;2022-12-29T17:13:37;8.10;;;5.50;;
51479;SDS011;37556;44.570;18.612;2022-12-29T17:18:29;9.48;;;7.22;;
51479;SDS011;37556;44.570;18.612;2022-12-29T17:20:56;19.13;;;11.30;;
51479;SDS011;37556;44.570;18.612;2022-12-29T17:23:22;15.55;;;7.20;;
51479;SDS011;37556;44.570;18.612;2022-12-29T17:25:48;8.57;;;5.05;;
51479;SDS011;37556;44.570;18.612;2022-12-29T17:30:46;14.02;;;7.18;;
51479;SDS011;37556;44.570;18.612;2022-12-29T17:33:14;25.00;;;11.10;;
51479;SDS011;37556;44.570;18.612;2022-12-29T17:35:40;18.13;;;9.77;;
51479;SDS011;37556;44.570;18.612;2022-12-29T17:38:22;16.02;;;12.02;;
51479;SDS011;37556;44.570;18.612;2022-12-29T17:40:50;30.42;;;18.27;;
51479;SDS011;37556;44.570;18.612;2022-12-29T17:43:17;33.60;;;12.70;;
51479;SDS011;37556;44.570;18.612;2022-12-29T17:45:51;15.25;;;8.30;;
51479;SDS011;37556;44.570;18.612;2022-12-29T17:48:18;26.98;;;14.82;;
51479;SDS011;37556;44.570;18.612;2022-12-29T17:50:45;20.25;;;10.10;;
51479;SDS011;37556;44.570;18.612;2022-12-29T17:53:13;35.13;;;12.70;;
51479;SDS011;37556;44.570;18.612;2022-12-29T17:55:40;16.45;;;10.43;;
51479;SDS011;37556;44.570;18.612;2022-12-29T17:58:14;29.13;;;16.30;;
51479;SDS011;37556;44.570;18.612;2022-12-29T18:00:41;26.45;;;15.27;;
51479;SDS011;37556;44.570;18.612;2022-12-29T18:05:33;11.00;;;10.07;;
51479;SDS011;37556;44.570;18.612;2022-12-29T18:07:59;25.27;;;10.00;;
51479;SDS011;37556;44.570;18.612;2022-12-29T18:10:26;11.40;;;7.53;;
51479;SDS011;37556;44.570;18.612;2022-12-29T18:12:54;12.75;;;6.97;;
51479;SDS011;37556;44.570;18.612;2022-12-29T18:15:28;8.85;;;7.82;;
51479;SDS011;37556;44.570;18.612;2022-12-29T18:18:01;7.60;;;5.85;;
51479;SDS011;37556;44.570;18.612;2022-12-29T18:20:28;5.28;;;4.90;;
51479;SDS011;37556;44.570;18.612;2022-12-29T18:22:56;11.10;;;7.35;;
51479;SDS011;37556;44.570;18.612;2022-12-29T18:27:54;8.02;;;5.28;;
51479;SDS011;37556;44.570;18.612;2022-12-29T18:30:20;5.90;;;4.65;;
51479;SDS011;37556;44.570;18.612;2022-12-29T18:35:18;4.00;;;3.60;;
51479;SDS011;37556;44.570;18.612;2022-12-29T18:37:44;5.50;;;3.72;;
51479;SDS011;37556;44.570;18.612;2022-12-29T18:40:11;7.97;;;4.45;;
51479;SDS011;37556;44.570;18.612;2022-12-29T18:42:37;2.60;;;2.38;;
51479;SDS011;37556;44.570;18.612;2022-12-29T18:47:29;3.38;;;2.88;;
51479;SDS011;37556;44.570;18.612;2022-12-29T18:49:57;12.35;;;6.80;;
51479;SDS011;37556;44.570;18.612;2022-12-29T18:52:23;7.72;;;6.97;;
51479;SDS011;37556;44.570;18.612;2022-12-29T18:54:49;7.43;;;4.82;;
51479;SDS011;37556;44.570;18.612;2022-12-29T18:57:15;4.63;;;3.95;;
51479;SDS011;37556;44.570;18.612;2022-12-29T18:59:41;3.83;;;3.47;;
51479;SDS011;37556;44.570;18.612;2022-12-29T19:02:12;3.25;;;3.05;;